Estacada, OR

6:02 PM PST on December 22, 2014 (GMT -0800)
Portland-Troutdale | Change Station
CLOSE
Current Station
Airport
Location: Portland Troutdale,
Elevation: 36 ft
Nearby Weather Stations

Elev 36 ft 45.55 °N, 122.41 °W | Updated 9 minutes ago

Partly Cloudy
Partly Cloudy
46 °F
Feels Like 45 °F
N
4
Wind Variable Wind from East

Today
High -- | Low -- °F
--% Chance of Precip.
Yesterday
High -- | Low -- °F
Precip. -- in
7:46 AM 4:29 PM
New Moon, 1% visible
Pressure 30.33 in
Visibility 10.0 miles
Clouds Overcast 11000 ft
Windchill 45 °F
Dew Point 43 °F
Humidity 89%
Rainfall 0.04 in
Snow Depth Not available.
UV 0 out of 12
Pollen .20 out of 12
Air Quality Not available.
Flu Activity Not available.
METAR KTTD 230153Z 10003KT 10SM OVC110 08/06 A3033 RMK AO2 SLP271 T00780061

More Conditions Fewer Conditions

Pressure 30.33 in
Visibility 10.0 miles
Clouds Overcast 11000 ft
Windchill 45 °F
Dew Point 43 °F
Humidity 89%
Rainfall 0.04 in
Snow Depth Not available.
UV 0 out of 12
Pollen .20 out of 12
Air Quality Not available.
Flu Activity Not available.
METAR KTTD 230153Z 10003KT 10SM OVC110 08/06 A3033 RMK AO2 SLP271 T00780061

More Conditions Fewer Conditions

10-Day Weather Forecast

Almanac

Astronomy

Dec. 22, 2014 Rise Set
Actual Time
Civil Twilight
Nautical Twilight
Astronomical Twilight
Moon
Length of Visible Light
Length of Day
Tomorrow will be .
, % of the Moon is Illuminated

Today's Extremes

State Highs State Lows

Community

WunderPhotos

Upload Photos

1,779,759 photos uploaded!

WunderBlogs® & News

Nearby

Air Quality

  Air Quality AQ Index Pollutant
Not available.

Snow Depth

Station Depth Elevation

Earthquake Activity

City Distance Mag. Time & Date
Minimum magnitude displayed is 2.5.

Coastal Water Temperatures

Place Temperature

Nearby Weather Stations